Time;durP1;ratioP1;P1;durP2;ratioP2;P2;SDS_P1;SDS_P2;PMS_P1;PMS_P2;Temp;Humidity;BMP_temperature;BMP_pressure;BME280_temperature;BME280_humidity;BME280_pressure;Samples;Min_cycle;Max_cycle;Signal;HPM_P1;HPM_P2
2022/10/05 00:01:00;;;;;;;8.97;5.67;;;12.40;99.90;;;;;;5075259;28;20392;-70
2022/10/05 00:03:40;;;;;;;7.67;6.43;;;12.30;99.90;;;;;;5074846;28;20473;-71
2022/10/05 00:06:07;;;;;;;6.40;5.80;;;12.30;99.90;;;;;;5074775;28;20453;-71
2022/10/05 00:08:33;;;;;;;6.63;5.83;;;12.30;99.90;;;;;;5073856;28;20479;-70
2022/10/05 00:10:59;;;;;;;6.23;5.60;;;12.30;99.90;;;;;;5074847;28;20410;-71
2022/10/05 00:13:29;;;;;;;8.20;5.50;;;12.20;99.90;;;;;;5074639;28;20448;-71
2022/10/05 00:16:10;;;;;;;6.80;6.17;;;12.20;99.90;;;;;;5074225;28;20173;-71
2022/10/05 00:18:36;;;;;;;5.70;5.20;;;12.20;99.90;;;;;;5074560;28;20497;-71
2022/10/05 00:21:07;;;;;;;6.57;5.97;;;12.10;99.90;;;;;;5074395;28;20410;-71
2022/10/05 00:23:33;;;;;;;6.57;5.87;;;12.20;99.90;;;;;;5073581;28;20256;-71
2022/10/05 00:26:12;;;;;;;8.03;6.97;;;12.20;99.90;;;;;;5073746;28;20440;-71
2022/10/05 00:28:39;;;;;;;7.87;6.03;;;12.10;99.90;;;;;;5073169;28;20205;-71
2022/10/05 00:31:14;;;;;;;7.60;6.80;;;12.00;99.90;;;;;;5073987;28;20417;-71
2022/10/05 00:33:39;;;;;;;9.67;7.00;;;11.90;99.90;;;;;;5074056;28;20463;-71
2022/10/05 00:36:06;;;;;;;7.20;6.60;;;12.00;99.90;;;;;;5073676;28;20401;-71
2022/10/05 00:38:32;;;;;;;8.83;7.23;;;12.00;99.90;;;;;;5072181;28;20201;-71
2022/10/05 00:41:22;;;;;;;7.67;6.87;;;12.00;99.90;;;;;;5073458;28;20426;-71
2022/10/05 00:44:25;;;;;;;6.97;6.27;;;11.90;99.90;;;;;;5074077;28;20174;-71
2022/10/05 00:47:10;;;;;;;9.40;7.10;;;11.90;99.90;;;;;;5073623;28;20921;-71
2022/10/05 00:49:45;;;;;;;8.90;7.60;;;11.80;99.90;;;;;;5073666;28;20454;-71
2022/10/05 00:52:30;;;;;;;10.27;7.47;;;11.80;99.90;;;;;;5073573;28;20389;-71
2022/10/05 00:55:22;;;;;;;8.37;6.63;;;12.00;99.90;;;;;;5073299;28;20484;-71
2022/10/05 00:57:59;;;;;;;7.87;7.10;;;11.80;99.90;;;;;;5072510;28;20434;-71
2022/10/05 01:00:26;;;;;;;7.27;6.57;;;11.90;99.90;;;;;;5072920;28;20393;-71
2022/10/05 01:03:00;;;;;;;7.63;7.00;;;11.90;99.90;;;;;;5073049;28;20411;-71
2022/10/05 01:05:43;;;;;;;8.20;7.40;;;12.00;99.90;;;;;;5072851;28;20804;-71
2022/10/05 01:08:27;;;;;;;8.27;7.47;;;12.00;99.90;;;;;;5072582;28;20515;-71
2022/10/05 01:11:01;;;;;;;7.10;6.37;;;11.90;99.90;;;;;;5073339;28;20407;-71
2022/10/05 01:13:58;;;;;;;7.10;6.37;;;11.80;99.90;;;;;;5071884;28;20930;-71
2022/10/05 01:16:46;;;;;;;7.63;6.93;;;12.00;99.90;;;;;;5073083;28;20416;-71
2022/10/05 01:19:18;;;;;;;6.80;6.20;;;12.00;99.90;;;;;;5071889;28;20425;-72
2022/10/05 01:22:03;;;;;;;7.83;7.13;;;12.10;99.90;;;;;;5073344;28;20457;-71
2022/10/05 01:24:59;;;;;;;9.23;8.30;;;12.10;99.90;;;;;;5072771;28;20399;-71
2022/10/05 01:27:31;;;;;;;10.17;8.40;;;12.10;99.90;;;;;;5072510;28;20412;-71
2022/10/05 01:30:17;;;;;;;11.00;8.23;;;12.10;99.90;;;;;;5073025;28;20491;-71
2022/10/05 01:33:24;;;;;;;7.90;7.20;;;12.20;99.90;;;;;;5073114;28;20427;-71
2022/10/05 01:36:18;;;;;;;6.70;6.10;;;12.10;99.90;;;;;;5072585;28;20409;-71
2022/10/05 01:38:55;;;;;;;7.80;7.00;;;12.10;99.90;;;;;;5057625;28;20468;-71
2022/10/05 01:41:37;;;;;;;7.13;6.43;;;12.10;99.90;;;;;;5072547;28;20381;-70
2022/10/05 01:44:12;;;;;;;7.83;7.03;;;12.10;99.90;;;;;;5073196;28;20406;-71
2022/10/05 01:46:43;;;;;;;9.00;8.10;;;12.10;99.90;;;;;;5072593;28;20384;-71
2022/10/05 01:49:37;;;;;;;6.97;6.33;;;12.10;99.90;;;;;;5072245;28;20431;-76
2022/10/05 01:52:21;;;;;;;8.87;7.93;;;12.10;99.90;;;;;;5072208;28;20519;-71
2022/10/05 01:55:04;;;;;;;9.80;8.10;;;11.90;99.90;;;;;;5072261;28;20408;-72
2022/10/05 01:58:03;;;;;;;8.00;7.20;;;11.80;99.90;;;;;;5072583;28;20382;-71
2022/10/05 02:00:34;;;;;;;8.27;7.47;;;11.80;99.90;;;;;;5072562;28;20396;-71
2022/10/05 02:03:12;;;;;;;9.50;7.40;;;11.70;99.90;;;;;;5072779;28;20385;-72
2022/10/05 02:05:47;;;;;;;7.83;7.13;;;11.60;99.90;;;;;;5072576;28;20770;-72
2022/10/05 02:08:38;;;;;;;9.40;7.10;;;11.50;99.90;;;;;;5072258;28;20809;-71
2022/10/05 02:11:10;;;;;;;7.67;7.03;;;11.60;99.90;;;;;;5072610;28;20389;-71
2022/10/05 02:13:39;;;;;;;7.67;6.97;;;11.50;99.90;;;;;;5072184;28;20492;-71
2022/10/05 02:16:35;;;;;;;10.63;9.63;;;11.60;99.90;;;;;;5071530;28;20918;-71
2022/10/05 02:19:20;;;;;;;8.13;7.33;;;11.50;99.90;;;;;;5064218;28;20803;-70
2022/10/05 02:21:55;;;;;;;10.10;8.67;;;11.50;99.90;;;;;;5072503;28;20396;-71
2022/10/05 02:24:34;;;;;;;12.07;8.20;;;11.40;99.90;;;;;;5071415;28;20388;-71
2022/10/05 02:27:02;;;;;;;7.90;7.20;;;11.40;99.90;;;;;;5052152;28;20868;-71
2022/10/05 02:29:31;;;;;;;11.73;8.83;;;11.40;99.90;;;;;;5051769;28;20842;-71
2022/10/05 02:32:12;;;;;;;8.50;7.67;;;11.30;99.90;;;;;;5052008;28;20405;-71
2022/10/05 02:34:40;;;;;;;9.90;8.70;;;11.20;99.90;;;;;;5052247;28;20404;-71
2022/10/05 02:37:31;;;;;;;8.80;8.00;;;11.10;99.90;;;;;;5058655;28;20412;-71
2022/10/05 02:40:11;;;;;;;7.70;7.00;;;11.20;99.90;;;;;;5069020;28;20559;-71
2022/10/05 02:43:15;;;;;;;7.60;6.87;;;11.30;99.90;;;;;;5071135;28;20468;-71
2022/10/05 02:46:05;;;;;;;8.20;7.50;;;11.40;99.90;;;;;;5071508;28;20408;-71
2022/10/05 02:48:39;;;;;;;8.50;7.70;;;11.40;99.90;;;;;;5072216;28;20467;-72
2022/10/05 02:51:20;;;;;;;8.17;7.47;;;11.30;99.90;;;;;;5071860;28;20435;-72
2022/10/05 02:54:06;;;;;;;7.30;6.70;;;11.20;99.90;;;;;;5071594;28;20532;-71
2022/10/05 02:57:00;;;;;;;9.67;7.17;;;11.30;99.90;;;;;;5052126;28;20380;-71
2022/10/05 02:59:44;;;;;;;11.07;8.30;;;11.40;99.90;;;;;;5052596;28;20835;-71
2022/10/05 03:02:28;;;;;;;7.67;6.37;;;11.40;99.90;;;;;;5052926;28;20389;-72
2022/10/05 03:05:08;;;;;;;7.63;6.93;;;11.50;99.90;;;;;;5052180;28;20405;-71
2022/10/05 03:07:49;;;;;;;9.07;7.80;;;11.50;99.90;;;;;;5054966;28;20925;-71
2022/10/05 03:10:33;;;;;;;7.93;7.17;;;11.50;99.90;;;;;;5072157;28;20392;-71
2022/10/05 03:13:08;;;;;;;10.07;9.07;;;11.60;99.90;;;;;;5071892;28;20474;-71
2022/10/05 03:15:43;;;;;;;12.57;8.50;;;11.60;99.90;;;;;;5071890;28;20459;-71
2022/10/05 03:18:30;;;;;;;9.13;8.00;;;11.70;99.90;;;;;;5071957;28;20503;-71
2022/10/05 03:21:41;;;;;;;10.30;8.30;;;11.60;99.90;;;;;;5071773;28;20384;-71
2022/10/05 03:24:37;;;;;;;9.43;8.00;;;11.60;99.90;;;;;;5047471;28;20555;-71
2022/10/05 03:27:26;;;;;;;8.87;8.00;;;11.40;99.90;;;;;;5071589;28;20377;-71
2022/10/05 03:30:12;;;;;;;9.13;8.23;;;11.40;99.90;;;;;;5075265;28;20395;-71
2022/10/05 03:32:40;;;;;;;10.07;9.03;;;11.40;99.90;;;;;;5074722;28;20456;-71
2022/10/05 03:35:21;;;;;;;9.20;8.30;;;11.30;99.90;;;;;;5074874;28;20453;-71
2022/10/05 03:37:59;;;;;;;8.70;7.80;;;11.40;99.90;;;;;;5073988;28;20440;-70
2022/10/05 03:40:31;;;;;;;12.03;10.40;;;11.30;99.90;;;;;;5075043;28;20425;-71
2022/10/05 03:43:33;;;;;;;12.30;10.80;;;11.20;99.90;;;;;;5075452;28;20393;-71
2022/10/05 03:46:49;;;;;;;10.37;9.17;;;11.20;99.90;;;;;;5074859;28;20388;-71
2022/10/05 03:49:26;;;;;;;11.30;9.23;;;11.30;99.90;;;;;;5041089;28;20985;-71
2022/10/05 03:51:59;;;;;;;9.87;8.90;;;11.40;99.90;;;;;;5074808;28;20392;-71
2022/10/05 03:54:31;;;;;;;8.77;7.87;;;11.30;99.90;;;;;;5073904;28;20432;-71
2022/10/05 03:57:37;;;;;;;11.10;8.70;;;11.40;99.90;;;;;;5074886;28;20890;-71
2022/10/05 04:00:11;;;;;;;9.17;8.27;;;11.40;99.90;;;;;;5012870;28;20471;-71
2022/10/05 04:02:44;;;;;;;10.33;8.70;;;11.40;99.90;;;;;;5065033;28;20466;-71
2022/10/05 04:05:10;;;;;;;8.53;7.63;;;11.30;99.90;;;;;;5074813;28;20467;-70
2022/10/05 04:07:45;;;;;;;10.13;8.80;;;11.30;99.90;;;;;;5074186;28;20495;-71
2022/10/05 04:10:31;;;;;;;10.03;8.93;;;11.40;99.90;;;;;;5074654;28;20391;-71
2022/10/05 04:13:10;;;;;;;8.60;7.77;;;11.40;99.90;;;;;;5063825;28;20475;-71
2022/10/05 04:15:35;;;;;;;12.50;7.43;;;11.40;99.90;;;;;;5074680;28;20395;-71
2022/10/05 04:18:39;;;;;;;11.10;8.80;;;11.40;99.90;;;;;;5072841;28;20436;-71
2022/10/05 04:21:22;;;;;;;12.33;10.00;;;11.40;99.90;;;;;;5042915;28;20175;-71
2022/10/05 04:24:16;;;;;;;10.90;9.80;;;11.50;99.90;;;;;;5074369;28;20386;-71
2022/10/05 04:26:52;;;;;;;9.03;8.20;;;11.40;99.90;;;;;;5043575;28;20442;-71
2022/10/05 04:29:52;;;;;;;10.90;9.80;;;11.60;99.90;;;;;;5054069;28;20429;-71
2022/10/05 04:32:37;;;;;;;10.13;9.13;;;11.70;99.90;;;;;;5065973;28;20408;-71
2022/10/05 04:35:43;;;;;;;11.07;9.97;;;11.70;99.90;;;;;;5073409;28;20408;-69
2022/10/05 04:38:27;;;;;;;9.60;8.70;;;11.80;99.90;;;;;;5074074;28;20792;-71
2022/10/05 04:40:56;;;;;;;11.40;9.80;;;11.80;99.90;;;;;;5069037;28;21651;-71
2022/10/05 04:43:52;;;;;;;11.37;9.53;;;11.90;99.90;;;;;;5074077;28;20432;-71
2022/10/05 04:46:35;;;;;;;10.97;9.93;;;11.90;99.90;;;;;;5073594;28;20753;-70
2022/10/05 04:49:30;;;;;;;71.73;50.97;;;11.80;99.90;;;;;;5073296;28;20505;-72
2022/10/05 04:51:56;;;;;;;18.30;16.37;;;11.90;99.90;;;;;;5072859;28;20428;-71
2022/10/05 04:55:05;;;;;;;23.37;18.50;;;11.90;99.90;;;;;;5073367;28;20500;-71
2022/10/05 04:57:38;;;;;;;47.37;35.77;;;11.90;99.90;;;;;;5053669;28;20181;-71
2022/10/05 05:00:21;;;;;;;14.23;12.67;;;11.80;99.90;;;;;;5074313;28;20381;-70
2022/10/05 05:03:07;;;;;;;17.47;15.70;;;11.90;99.90;;;;;;5074506;28;20384;-69
2022/10/05 05:06:09;;;;;;;39.13;30.87;;;11.90;99.90;;;;;;5073460;28;20797;-70
2022/10/05 05:08:50;;;;;;;23.73;21.13;;;11.90;99.90;;;;;;5002174;28;20992;-70
2022/10/05 05:11:24;;;;;;;24.43;19.57;;;12.00;99.90;;;;;;5071632;28;20783;-70
2022/10/05 05:13:58;;;;;;;36.67;30.67;;;12.00;99.90;;;;;;5073656;28;20437;-70
2022/10/05 05:16:34;;;;;;;23.90;20.43;;;11.80;99.90;;;;;;5072895;28;20562;-70
2022/10/05 05:19:05;;;;;;;11.23;10.20;;;11.90;99.90;;;;;;5074396;28;20445;-70
2022/10/05 05:21:49;;;;;;;30.03;23.17;;;11.80;99.90;;;;;;5074468;28;20757;-70
2022/10/05 05:24:42;;;;;;;23.60;21.10;;;11.80;99.90;;;;;;5072211;28;21020;-70
2022/10/05 05:27:35;;;;;;;17.77;13.80;;;11.80;99.90;;;;;;5072340;28;20777;-70
2022/10/05 05:30:21;;;;;;;19.30;14.27;;;11.80;99.90;;;;;;5070216;28;20511;-70
2022/10/05 05:33:10;;;;;;;15.63;13.70;;;11.70;99.90;;;;;;5073267;28;20452;-70
2022/10/05 05:36:07;;;;;;;13.03;11.63;;;11.60;99.90;;;;;;5070978;28;20412;-69
2022/10/05 05:39:05;;;;;;;16.60;14.50;;;11.60;99.90;;;;;;5073597;28;20827;-70
2022/10/05 05:41:58;;;;;;;14.30;12.87;;;11.60;99.90;;;;;;5002106;28;20446;-71
2022/10/05 05:44:29;;;;;;;12.83;11.53;;;11.70;99.90;;;;;;5073587;28;20388;-71
2022/10/05 05:47:06;;;;;;;11.43;10.43;;;11.60;99.90;;;;;;5073394;28;20781;-71
2022/10/05 05:49:57;;;;;;;13.17;11.50;;;11.70;99.90;;;;;;5073090;28;20444;-71
2022/10/05 05:52:53;;;;;;;16.73;12.97;;;11.70;99.90;;;;;;5072867;28;20405;-71
2022/10/05 05:55:45;;;;;;;12.47;11.17;;;11.70;99.90;;;;;;5074607;28;20487;-71
2022/10/05 05:58:38;;;;;;;24.33;16.03;;;11.60;99.90;;;;;;5070819;28;20908;-71
2022/10/05 06:01:29;;;;;;;16.30;14.07;;;11.60;99.90;;;;;;5068915;28;20404;-71
2022/10/05 06:04:02;;;;;;;12.53;11.07;;;11.60;99.90;;;;;;5073400;28;20384;-70
2022/10/05 06:06:33;;;;;;;18.30;14.67;;;11.60;99.90;;;;;;5073011;28;20411;-71
2022/10/05 06:09:05;;;;;;;16.50;13.37;;;11.70;99.90;;;;;;5073471;28;20827;-71
2022/10/05 06:11:54;;;;;;;16.70;11.97;;;11.70;99.90;;;;;;5073170;28;20388;-71
2022/10/05 06:14:41;;;;;;;12.03;10.83;;;11.70;99.90;;;;;;5073308;28;20492;-71
2022/10/05 06:17:17;;;;;;;14.03;12.63;;;11.60;99.90;;;;;;5073111;28;20396;-71
2022/10/05 06:19:46;;;;;;;11.73;10.53;;;11.60;99.90;;;;;;5073133;28;20388;-70
2022/10/05 06:22:39;;;;;;;13.07;11.80;;;11.50;99.90;;;;;;5073267;28;20402;-71
2022/10/05 06:25:19;;;;;;;12.43;11.13;;;11.60;99.90;;;;;;5073034;28;20420;-71
2022/10/05 06:28:00;;;;;;;12.20;11.00;;;11.70;99.90;;;;;;5073303;28;20485;-71
2022/10/05 06:30:39;;;;;;;12.97;11.00;;;11.70;99.90;;;;;;5081852;28;20496;-69
2022/10/05 06:33:38;;;;;;;18.67;15.10;;;11.80;99.90;;;;;;5081473;28;20437;-71
2022/10/05 06:36:31;;;;;;;16.63;12.00;;;11.90;99.90;;;;;;5081507;28;20438;-71
2022/10/05 06:39:15;;;;;;;13.10;11.30;;;11.90;99.90;;;;;;5069694;28;20869;-71
2022/10/05 06:41:47;;;;;;;13.23;10.77;;;11.90;99.90;;;;;;5081107;28;20424;-71
2022/10/05 06:44:35;;;;;;;13.50;11.93;;;11.90;99.90;;;;;;5083018;28;20386;-70
2022/10/05 06:47:30;;;;;;;13.77;10.83;;;12.00;99.90;;;;;;5084764;28;20400;-71
2022/10/05 06:50:02;;;;;;;15.80;12.93;;;11.90;99.90;;;;;;5085605;28;20428;-71
2022/10/05 06:52:38;;;;;;;17.37;13.67;;;11.90;99.90;;;;;;5077444;28;20410;-72
2022/10/05 06:55:12;;;;;;;13.43;12.00;;;12.00;99.90;;;;;;5071521;28;20409;-72
2022/10/05 06:57:59;;;;;;;15.43;12.13;;;12.10;99.90;;;;;;5073128;28;20423;-72
2022/10/05 07:00:33;;;;;;;24.97;18.03;;;12.20;99.90;;;;;;5072862;28;20387;-72
2022/10/05 07:03:15;;;;;;;32.57;20.70;;;12.30;99.90;;;;;;5072865;28;20434;-72
2022/10/05 07:06:39;;;;;;;29.63;18.67;;;12.30;99.90;;;;;;5075556;28;20494;-72
2022/10/05 07:09:31;;;;;;;21.97;14.87;;;12.30;99.90;;;;;;4996691;28;20880;-72
2022/10/05 07:12:09;;;;;;;18.53;13.33;;;12.40;99.90;;;;;;4995453;28;20392;-72
2022/10/05 07:14:51;;;;;;;23.93;14.60;;;12.40;99.90;;;;;;5048096;28;20465;-71
2022/10/05 07:17:49;;;;;;;23.57;15.43;;;12.50;99.90;;;;;;5058407;28;20517;-71
2022/10/05 07:20:39;;;;;;;16.00;13.60;;;12.70;99.90;;;;;;5076376;28;20388;-70
2022/10/05 07:23:39;;;;;;;14.10;11.77;;;12.70;99.90;;;;;;5076023;28;20377;-70
2022/10/05 07:26:31;;;;;;;18.23;10.57;;;12.80;99.90;;;;;;5055755;28;20392;-72
2022/10/05 07:29:11;;;;;;;11.17;9.97;;;12.60;99.90;;;;;;5044997;28;20433;-72
2022/10/05 07:32:03;;;;;;;13.60;10.87;;;12.50;99.90;;;;;;5055976;28;20440;-72
2022/10/05 07:34:46;;;;;;;12.97;10.40;;;12.80;99.90;;;;;;5018051;28;20538;-72
2022/10/05 07:40:16;;;;;;;85.93;48.90;;;13.10;99.90;;;;;;5072436;28;20426;-73
2022/10/05 07:42:55;;;;;;;23.90;16.20;;;13.00;99.90;;;;;;5076209;28;20892;-72
2022/10/05 07:45:28;;;;;;;13.60;10.60;;;13.10;99.90;;;;;;5075091;28;20393;-72
2022/10/05 07:48:18;;;;;;;12.23;10.63;;;13.20;99.90;;;;;;5074960;28;20980;-73
2022/10/05 07:51:02;;;;;;;11.43;10.17;;;13.40;99.90;;;;;;5075247;28;20432;-71
2022/10/05 07:53:38;;;;;;;12.07;9.50;;;13.50;99.90;;;;;;5073914;28;20547;-71
2022/10/05 07:56:19;;;;;;;10.30;9.23;;;13.60;99.90;;;;;;5073534;28;20389;-72
2022/10/05 07:59:00;;;;;;;9.77;8.77;;;13.70;99.90;;;;;;5074930;28;20469;-71
2022/10/05 08:01:30;;;;;;;10.33;9.07;;;13.90;99.90;;;;;;5075389;28;20390;-71
2022/10/05 08:04:02;;;;;;;10.13;9.20;;;14.00;99.90;;;;;;5075478;28;20776;-72
2022/10/05 08:06:39;;;;;;;12.20;8.93;;;13.70;99.90;;;;;;5075585;28;20425;-71
2022/10/05 08:09:33;;;;;;;8.57;7.77;;;13.50;99.90;;;;;;5074678;28;20420;-71
2022/10/05 08:12:23;;;;;;;10.73;8.23;;;13.30;99.90;;;;;;5075074;28;20380;-70
2022/10/05 08:15:01;;;;;;;10.80;8.50;;;13.20;99.90;;;;;;5072601;28;20445;-71
2022/10/05 08:17:45;;;;;;;15.90;9.57;;;13.40;99.90;;;;;;5074671;28;20386;-70
2022/10/05 08:20:26;;;;;;;11.70;10.43;;;13.30;99.90;;;;;;5075145;28;20407;-70
2022/10/05 08:23:00;;;;;;;11.50;9.30;;;13.40;99.90;;;;;;5072640;28;20783;-71
2022/10/05 08:25:36;;;;;;;12.00;9.20;;;13.50;99.90;;;;;;5074657;28;20416;-70
2022/10/05 08:28:18;;;;;;;12.40;8.60;;;13.60;99.90;;;;;;5073691;28;20467;-71
2022/10/05 08:30:55;;;;;;;14.60;9.27;;;13.60;99.90;;;;;;5074478;28;20471;-71
2022/10/05 08:33:23;;;;;;;12.57;9.83;;;13.60;99.90;;;;;;5074747;28;20439;-72
2022/10/05 08:36:02;;;;;;;10.47;9.47;;;13.80;99.90;;;;;;5075068;28;20435;-71
2022/10/05 08:38:32;;;;;;;9.80;8.70;;;14.00;99.90;;;;;;5073607;28;20429;-69
2022/10/05 08:41:31;;;;;;;10.00;8.50;;;14.00;99.90;;;;;;5073754;28;20404;-70
2022/10/05 08:44:29;;;;;;;9.40;8.43;;;14.20;99.90;;;;;;5074970;28;20838;-70
2022/10/05 08:47:15;;;;;;;12.00;9.80;;;14.20;99.90;;;;;;5074193;28;20421;-70
2022/10/05 08:50:14;;;;;;;12.73;9.00;;;14.30;99.90;;;;;;5074359;28;20434;-71
2022/10/05 08:53:15;;;;;;;9.83;8.80;;;14.40;99.90;;;;;;5058839;28;20447;-71
2022/10/05 08:56:04;;;;;;;15.90;9.10;;;14.60;99.90;;;;;;5073751;28;20415;-72
2022/10/05 08:58:36;;;;;;;10.90;9.80;;;14.50;99.90;;;;;;5074105;28;20424;-71
2022/10/05 09:01:24;;;;;;;12.40;11.10;;;14.60;99.90;;;;;;5074355;28;20403;-70
2022/10/05 09:04:12;;;;;;;12.03;10.13;;;14.70;99.90;;;;;;5074014;28;20447;-71
2022/10/05 09:07:12;;;;;;;12.60;10.80;;;14.70;99.90;;;;;;5074844;28;20744;-73
2022/10/05 09:09:48;;;;;;;12.20;10.00;;;15.00;99.90;;;;;;5073343;28;20422;-72
2022/10/05 09:12:57;;;;;;;15.60;11.20;;;15.00;99.90;;;;;;5072940;28;20469;-69
2022/10/05 09:15:58;;;;;;;12.63;10.83;;;15.10;99.90;;;;;;5074085;28;20407;-71
2022/10/05 09:18:48;;;;;;;11.67;10.50;;;15.20;99.90;;;;;;5070102;28;20442;-72
2022/10/05 09:21:47;;;;;;;12.00;9.30;;;15.10;99.90;;;;;;5073964;28;20391;-72
2022/10/05 09:24:13;;;;;;;11.47;9.60;;;15.30;99.90;;;;;;5073983;28;20402;-72
2022/10/05 09:26:44;;;;;;;11.00;10.00;;;15.50;99.90;;;;;;5073532;28;20720;-72
2022/10/05 09:29:43;;;;;;;11.00;9.70;;;15.70;99.90;;;;;;5073797;28;20290;-73
2022/10/05 09:32:39;;;;;;;12.47;9.77;;;15.70;99.90;;;;;;5073635;28;20483;-72
2022/10/05 09:35:05;;;;;;;10.87;9.77;;;15.90;99.90;;;;;;5073524;28;20404;-71
2022/10/05 09:38:01;;;;;;;10.70;9.13;;;16.10;99.90;;;;;;5073437;28;20428;-71
2022/10/05 09:40:48;;;;;;;11.40;10.20;;;16.30;99.90;;;;;;5071902;28;20173;-71
2022/10/05 09:43:43;;;;;;;11.20;9.70;;;16.50;99.90;;;;;;5073173;28;20397;-71
2022/10/05 09:46:38;;;;;;;11.40;8.83;;;16.70;99.90;;;;;;5072992;28;20397;-71
2022/10/05 09:49:12;;;;;;;8.90;7.73;;;16.80;99.90;;;;;;5073237;28;20432;-71
2022/10/05 09:51:57;;;;;;;8.33;7.53;;;16.90;99.90;;;;;;5072075;28;20427;-71
2022/10/05 09:54:42;;;;;;;11.20;8.40;;;17.00;99.90;;;;;;5073323;28;20436;-72
2022/10/05 09:57:36;;;;;;;9.63;7.13;;;17.10;99.90;;;;;;5072964;28;20408;-70
2022/10/05 10:00:26;;;;;;;8.70;7.43;;;17.30;99.90;;;;;;5072662;28;20832;-71
2022/10/05 10:03:08;;;;;;;7.63;6.93;;;17.60;99.90;;;;;;5073459;28;20384;-71
2022/10/05 10:05:53;;;;;;;10.33;7.47;;;17.80;99.90;;;;;;5072620;28;20392;-71
2022/10/05 10:08:39;;;;;;;10.60;7.33;;;18.10;99.90;;;;;;5073168;28;20432;-72
2022/10/05 10:11:25;;;;;;;10.10;6.90;;;18.30;99.90;;;;;;5072201;28;20400;-71
2022/10/05 10:14:02;;;;;;;9.73;6.20;;;18.50;99.90;;;;;;5072559;28;20573;-71
2022/10/05 10:16:56;;;;;;;7.20;6.50;;;18.50;99.90;;;;;;5073058;28;20386;-71
2022/10/05 10:19:46;;;;;;;9.43;6.20;;;18.60;99.90;;;;;;5072574;28;20424;-70
2022/10/05 10:22:33;;;;;;;7.87;6.47;;;18.70;99.90;;;;;;5072554;28;20503;-71
2022/10/05 10:25:24;;;;;;;6.70;6.10;;;18.90;99.90;;;;;;5073032;28;20403;-71
2022/10/05 10:28:02;;;;;;;9.10;6.00;;;19.00;99.90;;;;;;5072543;28;20428;-71
2022/10/05 10:30:52;;;;;;;10.67;5.73;;;19.40;99.90;;;;;;5072582;28;20380;-71
2022/10/05 10:33:39;;;;;;;6.00;4.37;;;19.60;99.90;;;;;;5072512;28;20450;-69
2022/10/05 10:36:32;;;;;;;7.60;6.80;;;19.90;99.90;;;;;;5072485;28;20429;-71
2022/10/05 10:39:44;;;;;;;10.63;8.73;;;20.10;99.90;;;;;;5074444;28;20522;-71
2022/10/05 10:42:36;;;;;;;5.43;4.93;;;20.40;99.90;;;;;;5061029;28;20434;-71
2022/10/05 10:45:15;;;;;;;10.23;8.70;;;20.70;99.90;;;;;;5076877;28;20372;-71
2022/10/05 10:47:53;;;;;;;4.03;2.23;;;20.80;99.90;;;;;;5056251;28;20425;-70
2022/10/05 10:50:48;;;;;;;3.10;1.90;;;21.10;99.90;;;;;;5056511;28;20511;-71
2022/10/05 10:54:01;;;;;;;3.37;2.10;;;21.30;99.90;;;;;;5056488;28;20486;-71
2022/10/05 10:56:47;;;;;;;2.90;2.60;;;21.50;99.90;;;;;;5055247;28;21055;-71
2022/10/05 10:59:40;;;;;;;2.37;2.17;;;21.90;99.90;;;;;;5056372;28;20532;-71
2022/10/05 11:02:46;;;;;;;2.30;2.00;;;22.10;99.90;;;;;;5055843;28;20425;-72
2022/10/05 11:05:18;;;;;;;3.40;2.20;;;22.90;99.90;;;;;;5057251;28;20488;-71
2022/10/05 11:08:08;;;;;;;3.67;1.80;;;24.60;99.90;;;;;;5056198;28;20461;-72
2022/10/05 11:10:48;;;;;;;3.30;2.03;;;27.20;98.70;;;;;;5056094;28;20398;-71
2022/10/05 11:13:20;;;;;;;4.10;2.50;;;29.40;95.30;;;;;;5056568;28;20543;-72
2022/10/05 11:16:25;;;;;;;3.20;2.00;;;30.30;91.00;;;;;;5075739;28;20380;-72
2022/10/05 11:19:19;;;;;;;1.80;1.70;;;29.80;90.40;;;;;;5076168;28;20416;-72
2022/10/05 11:22:03;;;;;;;6.40;2.43;;;29.80;89.30;;;;;;5076507;28;20814;-73
2022/10/05 11:24:43;;;;;;;4.60;2.97;;;29.80;87.40;;;;;;5076163;28;20389;-72
2022/10/05 11:27:31;;;;;;;4.80;2.10;;;31.00;85.00;;;;;;5076380;28;20415;-72
2022/10/05 11:30:21;;;;;;;2.10;1.90;;;32.10;81.00;;;;;;5075576;28;20419;-73
2022/10/05 11:32:59;;;;;;;4.43;2.20;;;33.10;77.10;;;;;;5076168;28;20466;-74
2022/10/05 11:35:40;;;;;;;3.43;2.80;;;33.10;74.60;;;;;;5076224;28;20376;-74
2022/10/05 11:38:35;;;;;;;3.10;2.20;;;33.40;75.30;;;;;;5075991;28;20917;-74
2022/10/05 11:41:49;;;;;;;2.70;2.50;;;34.30;68.50;;;;;;5074890;28;20508;-73
2022/10/05 11:44:56;;;;;;;2.13;2.03;;;32.40;70.50;;;;;;5017902;28;20426;-73
2022/10/05 11:47:24;;;;;;;3.10;2.10;;;32.20;72.10;;;;;;5057008;28;20432;-72
2022/10/05 11:50:25;;;;;;;2.47;1.80;;;32.90;72.20;;;;;;5060575;28;20454;-72
2022/10/05 11:53:18;;;;;;;2.23;2.03;;;34.10;68.50;;;;;;5055960;28;20977;-72
2022/10/05 11:56:01;;;;;;;2.27;2.10;;;34.60;65.20;;;;;;5055995;28;20412;-74
2022/10/05 11:58:30;;;;;;;3.67;2.10;;;32.90;68.20;;;;;;5055636;28;20421;-74
2022/10/05 12:01:05;;;;;;;2.00;1.90;;;33.10;67.70;;;;;;5055806;28;20419;-73
2022/10/05 12:03:47;;;;;;;2.50;2.00;;;33.60;66.30;;;;;;5074849;28;20412;-73
2022/10/05 12:06:29;;;;;;;1.80;1.70;;;33.90;66.80;;;;;;5075532;28;20384;-74
2022/10/05 12:09:03;;;;;;;2.23;2.03;;;34.60;64.80;;;;;;5075753;28;20420;-74
2022/10/05 12:11:54;;;;;;;2.00;1.90;;;34.50;65.30;;;;;;5074369;28;20423;-74
2022/10/05 12:14:28;;;;;;;2.80;1.70;;;34.70;64.10;;;;;;5076221;28;20909;-74
2022/10/05 12:17:09;;;;;;;1.70;1.60;;;34.50;64.20;;;;;;5076415;28;20389;-74
2022/10/05 12:19:55;;;;;;;1.80;1.70;;;34.60;63.20;;;;;;5074264;28;20841;-74
2022/10/05 12:22:43;;;;;;;2.10;1.80;;;35.00;64.40;;;;;;5074397;28;20511;-73
2022/10/05 12:25:15;;;;;;;3.23;1.70;;;35.20;64.60;;;;;;5074285;28;20408;-73
2022/10/05 12:27:45;;;;;;;1.57;1.47;;;36.10;61.00;;;;;;5074478;28;20474;-73
2022/10/05 12:30:31;;;;;;;2.17;1.60;;;36.10;59.60;;;;;;5074863;28;20400;-73
2022/10/05 12:33:11;;;;;;;2.20;1.43;;;35.50;59.80;;;;;;5073569;28;20448;-69
2022/10/05 12:35:58;;;;;;;1.83;1.60;;;35.90;60.10;;;;;;5074770;28;20381;-73
2022/10/05 12:38:35;;;;;;;1.63;1.53;;;36.70;58.50;;;;;;5074152;28;20428;-72
2022/10/05 12:41:06;;;;;;;2.60;1.90;;;37.60;59.30;;;;;;5073774;28;20499;-71
2022/10/05 12:43:39;;;;;;;2.10;1.90;;;36.60;57.40;;;;;;5074577;28;20970;-73
2022/10/05 12:46:25;;;;;;;1.50;1.40;;;35.40;58.10;;;;;;5075237;28;20399;-73
2022/10/05 12:49:15;;;;;;;2.33;1.50;;;34.80;58.50;;;;;;5074342;28;20416;-71
2022/10/05 12:51:56;;;;;;;1.80;1.53;;;34.80;60.20;;;;;;5074866;28;20489;-73
2022/10/05 12:54:41;;;;;;;1.87;1.30;;;35.70;58.50;;;;;;5074305;28;20446;-73
2022/10/05 12:57:19;;;;;;;2.60;1.20;;;35.30;57.40;;;;;;5072934;28;20416;-73
2022/10/05 13:00:07;;;;;;;1.73;1.33;;;35.30;55.00;;;;;;5074280;28;20387;-74
2022/10/05 13:02:41;;;;;;;2.90;2.10;;;35.40;55.60;;;;;;5073022;28;20461;-73
2022/10/05 13:05:09;;;;;;;3.47;1.30;;;35.90;55.10;;;;;;5074397;28;20373;-74
2022/10/05 13:07:56;;;;;;;1.93;1.77;;;35.50;54.30;;;;;;5074155;28;20487;-73
2022/10/05 13:10:47;;;;;;;2.03;1.07;;;36.00;53.40;;;;;;5074118;28;20380;-73
2022/10/05 13:13:22;;;;;;;3.20;1.40;;;35.50;52.80;;;;;;5074007;28;20606;-73
2022/10/05 13:16:27;;;;;;;1.43;1.00;;;35.30;53.00;;;;;;5074182;28;20422;-74
2022/10/05 13:19:01;;;;;;;1.33;1.00;;;35.70;52.20;;;;;;5074010;28;20435;-74
2022/10/05 13:21:52;;;;;;;2.83;0.90;;;36.10;51.30;;;;;;5073982;28;20372;-73
2022/10/05 13:24:48;;;;;;;1.43;1.07;;;36.90;50.30;;;;;;5073858;28;20411;-74
2022/10/05 13:27:26;;;;;;;2.70;1.47;;;35.50;51.70;;;;;;5073766;28;20783;-73
2022/10/05 13:30:01;;;;;;;2.70;1.33;;;35.10;50.80;;;;;;5073502;28;20563;-73
2022/10/05 13:32:33;;;;;;;1.97;1.27;;;34.30;51.80;;;;;;5073705;28;20403;-74
2022/10/05 13:35:17;;;;;;;1.47;1.10;;;34.60;52.50;;;;;;5073861;28;20389;-74
2022/10/05 13:38:00;;;;;;;4.03;1.50;;;34.20;52.00;;;;;;5073906;28;20495;-74
2022/10/05 13:40:32;;;;;;;1.73;0.90;;;33.90;54.00;;;;;;5064387;28;20416;-74
2022/10/05 13:43:16;;;;;;;1.70;1.00;;;34.70;52.00;;;;;;5073537;28;20385;-74
2022/10/05 13:46:04;;;;;;;1.30;0.80;;;35.20;49.80;;;;;;5073473;28;20413;-74
2022/10/05 13:48:58;;;;;;;1.33;0.70;;;35.60;49.40;;;;;;5073732;28;20424;-74
2022/10/05 13:51:44;;;;;;;2.07;0.90;;;35.50;48.90;;;;;;5073133;28;20510;-73
2022/10/05 13:54:14;;;;;;;1.40;1.07;;;36.10;50.80;;;;;;5073390;28;20440;-73
2022/10/05 13:56:47;;;;;;;2.03;1.03;;;36.20;47.50;;;;;;5072457;28;20938;-73
2022/10/05 13:59:34;;;;;;;1.23;1.00;;;35.80;49.30;;;;;;5073384;28;20415;-72
2022/10/05 14:02:14;;;;;;;1.83;1.00;;;35.60;47.70;;;;;;5073184;28;20400;-75
2022/10/05 14:05:12;;;;;;;1.67;0.97;;;36.60;48.50;;;;;;5073515;28;20475;-72
2022/10/05 14:08:01;;;;;;;2.40;1.10;;;36.50;46.90;;;;;;5073709;28;20786;-72